ADDS METAR Data INFO
IDs: Format: Raw Decoded Include TAF

Data at: 0932 UTC 17 Oct 2017

KLAF 170854Z AUTO 00000KT 10SM CLR 05/03 A3029 RMK AO2 SLP257 T00500033 51004
KLAF 170754Z AUTO 00000KT 10SM CLR 06/04 A3028 RMK AO2 SLP256 T00610039
KLAF 170654Z AUTO 00000KT 10SM CLR 06/04 A3028 RMK AO2 SLP253 T00610039
KLAF 170554Z AUTO 28003KT 10SM CLR 06/04 A3028 RMK AO2 SLP253 T00610039 10100 20061 57002
KLAF 170454Z AUTO 23003KT 10SM CLR 07/04 A3028 RMK AO2 SLP253 T00720039 401720033
KLAF 170354Z AUTO 00000KT 10SM CLR 08/04 A3028 RMK AO2 SLP255 T00780039
KLAF 170254Z AUTO 00000KT 10SM CLR 07/04 A3028 RMK AO2 SLP255 T00720044 51006
KLAF 170154Z AUTO 25003KT 10SM CLR 08/04 A3027 RMK AO2 SLP254 T00780044
KLAF 170054Z 00000KT 10SM CLR 09/05 A3027 RMK AO2 SLP252 T00940050
KLAF 162354Z 00000KT 10SM CLR 10/06 A3026 RMK AO2 SLP250 T01000056 10172 20100 55005
KLAF 162254Z 22003KT 10SM CLR 14/04 A3026 RMK AO2 SLP249 T01440039
KLAF 162154Z 27003KT 10SM CLR 16/03 A3026 RMK AO2 SLP250 T01610028
KLAF 162054Z COR 26007KT 10SM SCT065 16/03 A3028 RMK AO2 SLP254 T01610033 56018
KLAF 161954Z 29008KT 10SM SCT070 15/03 A3029 RMK AO2 SLP258 T01500028
KLAF 161854Z 28009KT 10SM SCT050 16/03 A3030 RMK AO2 SLP262 T01610028
KLAF 161754Z 28005KT 10SM FEW050 15/03 A3033 RMK AO2 SLP271 T01500028 10156 20033 58011
KLAF 161654Z 32006KT 10SM CLR 14/03 A3035 RMK AO2 SLP277 T01390033
KLAF 161212Z 28003KT 10SM MIFG BKN001 03/03 A3033 RMK AO2 T00330033
KLAF 161208Z 28003KT 10SM MIFG SCT002 03/03 A3033 RMK AO2 T00330033
KLAF 161154Z 26003KT 10SM CLR 04/04 A3033 RMK AO2 SLP272 70008 T00390039 10078 20039 53013
KLAF 161054Z 28003KT 10SM CLR 04/04 A3031 RMK AO2 SLP265 T00440044
KLAF 160954Z AUTO 26003KT 10SM CLR 05/05 A3030 RMK AO2 SLP261 T00500050
KLAF 160854Z AUTO 28004KT 10SM OVC055 05/05 A3029 RMK AO2 SLP257 T00500050 52008
KLAF 160754Z AUTO 27003KT 10SM OVC060 06/05 A3027 RMK AO2 SLP253 T00610050
KLAF 160654Z AUTO 31004KT 10SM BKN060 07/04 A3028 RMK AO2 SLP253 T00720044
KLAF 160554Z AUTO 31005KT 10SM CLR 07/04 A3026 RMK AO2 SLP249 T00720044 10111 20072 51009
KLAF 160454Z AUTO 32006KT 10SM CLR 08/05 A3026 RMK AO2 SLP247 T00830050 402390083
KLAF 160354Z AUTO 31007KT 10SM BKN060 09/06 A3024 RMK AO2 SLP243 T00940061
KLAF 160254Z AUTO 31008KT 10SM OVC055 11/06 A3024 RMK AO2 SLP239 T01060061 51019
KLAF 160154Z AUTO 31008KT 10SM OVC050 11/06 A3023 RMK AO2 SLP235 T01110061
KLAF 160054Z 31009KT 10SM OVC047 11/07 A3021 RMK AO2 SLP229 T01110067
KLAF 152354Z 32009KT 10SM OVC049 11/07 A3018 RMK AO2 SLP218 T01110067 10122 20111 53023
KLAF 152254Z 30009KT 10SM OVC045 12/06 A3015 RMK AO2 SLP208 T01170061
KLAF 152154Z 31013KT 10SM BKN042 12/06 A3013 RMK AO2 SLP199 T01220056